createdAt,value
2018-08-20T00:00:58.805Z,51.30
2018-08-20T00:03:26.983Z,51.40
2018-08-20T00:05:55.312Z,51.40
2018-08-20T00:08:23.919Z,51.40
2018-08-20T00:10:54.976Z,51.30
2018-08-20T00:13:22.806Z,51.50
2018-08-20T00:15:50.456Z,51.30
2018-08-20T00:18:23.372Z,51.10
2018-08-20T00:20:51.002Z,51.00
2018-08-20T00:23:27.424Z,51.30
2018-08-20T00:25:56.616Z,51.20
2018-08-20T00:28:24.252Z,51.50
2018-08-20T00:30:51.865Z,51.30
2018-08-20T00:33:19.594Z,51.10
2018-08-20T00:35:47.137Z,51.00
2018-08-20T00:38:14.703Z,51.00
2018-08-20T00:40:42.461Z,50.80
2018-08-20T00:43:10.027Z,51.00
2018-08-20T00:45:37.581Z,50.60
2018-08-20T00:48:05.290Z,51.20
2018-08-20T00:50:32.856Z,51.40
2018-08-20T00:53:00.500Z,50.80
2018-08-20T00:55:28.361Z,50.90
2018-08-20T00:57:55.935Z,51.20
2018-08-20T01:00:23.559Z,51.10
2018-08-20T01:02:51.124Z,51.00
2018-08-20T01:05:18.697Z,51.30
2018-08-20T01:07:46.291Z,51.10
2018-08-20T01:10:14.220Z,50.80
2018-08-20T01:12:41.899Z,50.90
2018-08-20T01:15:09.502Z,51.00
2018-08-20T01:17:37.086Z,51.10
2018-08-20T01:20:04.723Z,50.90
2018-08-20T01:22:32.427Z,51.10
2018-08-20T01:24:59.996Z,51.10
2018-08-20T01:27:28.603Z,51.00
2018-08-20T01:29:56.337Z,51.00
2018-08-20T01:32:24.109Z,51.20
2018-08-20T01:34:51.764Z,51.10
2018-08-20T01:37:20.152Z,51.00
2018-08-20T01:39:48.658Z,51.00
2018-08-20T01:42:16.908Z,51.20
2018-08-20T01:44:45.359Z,51.20
2018-08-20T01:47:12.962Z,51.20
2018-08-20T01:49:40.602Z,51.40
2018-08-20T01:52:08.336Z,51.30
2018-08-20T01:54:36.948Z,51.40
2018-08-20T01:57:05.160Z,51.00
2018-08-20T01:59:32.824Z,51.20
2018-08-20T02:02:01.642Z,51.40
2018-08-20T02:04:29.531Z,51.30
2018-08-20T02:06:57.236Z,51.40
2018-08-20T02:09:24.800Z,51.50
2018-08-20T02:11:52.391Z,51.60
2018-08-20T02:14:20.027Z,51.20
2018-08-20T02:16:47.613Z,51.20
2018-08-20T02:19:15.224Z,51.30
2018-08-20T02:21:42.796Z,51.10
2018-08-20T02:24:10.705Z,51.20
2018-08-20T02:26:38.252Z,51.40
2018-08-20T02:29:05.889Z,51.30
2018-08-20T02:31:33.559Z,51.40
2018-08-20T02:34:01.404Z,51.20
2018-08-20T02:36:29.032Z,51.20
2018-08-20T02:38:56.963Z,51.50
2018-08-20T02:41:24.772Z,51.30
2018-08-20T02:43:52.382Z,51.30
2018-08-20T02:46:25.675Z,51.40
2018-08-20T02:48:53.236Z,51.40
2018-08-20T02:51:20.808Z,51.10
2018-08-20T02:53:48.420Z,51.20
2018-08-20T02:56:16.036Z,51.10
2018-08-20T02:58:43.621Z,51.00
2018-08-20T03:01:13.212Z,51.10
2018-08-20T03:03:40.845Z,51.30
2018-08-20T03:06:08.351Z,51.30
2018-08-20T03:08:36.052Z,51.30
2018-08-20T03:11:03.649Z,51.20
2018-08-20T03:13:31.317Z,51.40
2018-08-20T03:15:58.900Z,51.40
2018-08-20T03:18:26.479Z,51.50
2018-08-20T03:20:54.067Z,51.80
2018-08-20T03:23:21.688Z,51.40
2018-08-20T03:25:49.300Z,51.10
2018-08-20T03:28:16.909Z,51.20
2018-08-20T03:30:44.499Z,51.30
2018-08-20T03:33:12.041Z,51.00
2018-08-20T03:35:39.644Z,50.80
2018-08-20T03:38:07.253Z,50.90
2018-08-20T03:40:36.989Z,50.90
2018-08-20T03:43:04.953Z,50.80
2018-08-20T03:45:32.549Z,50.80
2018-08-20T03:48:00.463Z,50.80
2018-08-20T03:50:28.052Z,51.00
2018-08-20T03:52:55.856Z,50.80
2018-08-20T03:55:23.428Z,50.50
2018-08-20T03:57:51.048Z,50.70
2018-08-20T04:00:23.048Z,50.60
2018-08-20T04:02:50.799Z,50.80
2018-08-20T04:05:18.361Z,50.60
2018-08-20T04:07:45.920Z,50.70
2018-08-20T04:10:13.545Z,50.90
2018-08-20T04:12:41.104Z,50.80
2018-08-20T04:15:08.684Z,51.10
2018-08-20T04:17:36.237Z,51.10
2018-08-20T04:20:03.869Z,51.20
2018-08-20T04:22:31.463Z,51.20
2018-08-20T04:25:00.111Z,51.30
2018-08-20T04:27:27.675Z,51.30
2018-08-20T04:29:55.244Z,51.40
2018-08-20T04:32:22.836Z,51.20
2018-08-20T04:34:50.447Z,51.40
2018-08-20T04:37:18.076Z,51.40
2018-08-20T04:39:45.664Z,51.40
2018-08-20T04:42:13.350Z,51.60
2018-08-20T04:44:41.015Z,51.60
2018-08-20T04:47:08.626Z,51.70
2018-08-20T04:49:36.341Z,51.90
2018-08-20T04:52:03.937Z,51.80
2018-08-20T04:54:31.900Z,51.90
2018-08-20T04:56:59.657Z,51.80
2018-08-20T04:59:27.262Z,51.90
2018-08-20T05:01:55.975Z,52.00
2018-08-20T05:04:23.535Z,51.90
2018-08-20T05:06:51.149Z,51.90
2018-08-20T05:09:18.706Z,51.80
2018-08-20T05:11:46.447Z,51.90
2018-08-20T05:14:14.411Z,52.10
2018-08-20T05:16:41.989Z,52.40
2018-08-20T05:19:09.561Z,52.20
2018-08-20T05:21:37.208Z,52.30
2018-08-20T05:24:04.799Z,52.30
2018-08-20T05:26:32.404Z,52.40
2018-08-20T05:28:59.963Z,52.10
2018-08-20T05:31:27.526Z,51.90
2018-08-20T05:33:55.090Z,51.80
2018-08-20T05:36:22.641Z,51.80
2018-08-20T05:38:50.196Z,51.60
2018-08-20T05:41:17.749Z,51.50
2018-08-20T05:43:45.355Z,51.50
2018-08-20T05:46:12.952Z,51.60
2018-08-20T05:48:40.527Z,51.50
2018-08-20T05:51:08.141Z,51.40
2018-08-20T05:53:35.701Z,51.40
2018-08-20T05:56:03.270Z,51.50
2018-08-20T05:58:30.924Z,51.30
2018-08-20T06:00:58.592Z,51.40
2018-08-20T06:03:26.241Z,51.90
2018-08-20T06:05:53.839Z,51.40
2018-08-20T06:08:21.402Z,51.30
2018-08-20T06:10:48.983Z,51.30
2018-08-20T06:13:16.660Z,51.30
2018-08-20T06:15:44.230Z,51.30
2018-08-20T06:18:12.186Z,51.30
2018-08-20T06:20:39.769Z,51.20
2018-08-20T06:23:07.354Z,51.30
2018-08-20T06:25:34.980Z,51.40
2018-08-20T06:28:02.694Z,51.70
2018-08-20T06:30:30.788Z,51.30
2018-08-20T06:32:58.351Z,51.50
2018-08-20T06:35:25.937Z,51.40
2018-08-20T06:37:53.568Z,51.50
2018-08-20T06:40:21.155Z,51.40
2018-08-20T06:42:48.700Z,51.40
2018-08-20T06:45:17.102Z,51.40
2018-08-20T06:47:45.531Z,51.30
2018-08-20T06:50:13.428Z,51.10
2018-08-20T06:52:42.179Z,51.40
2018-08-20T06:55:09.784Z,51.50
2018-08-20T06:57:37.353Z,51.40
2018-08-20T07:00:05.790Z,51.30
2018-08-20T07:02:33.381Z,51.50
2018-08-20T07:05:00.956Z,52.10
2018-08-20T07:07:28.540Z,51.70
2018-08-20T07:09:56.148Z,51.70
2018-08-20T07:12:23.782Z,51.40
2018-08-20T07:14:51.396Z,51.60
2018-08-20T07:17:18.960Z,51.70
2018-08-20T07:19:46.569Z,51.90
2018-08-20T07:22:14.123Z,51.80
2018-08-20T07:24:41.705Z,51.70
2018-08-20T07:27:09.532Z,51.90
2018-08-20T07:29:38.640Z,51.90
2018-08-20T07:32:07.988Z,51.80
2018-08-20T07:34:36.186Z,51.70
2018-08-20T07:37:03.839Z,51.80
2018-08-20T07:39:31.419Z,51.70
2018-08-20T07:41:58.968Z,51.70
2018-08-20T07:44:26.515Z,51.70
2018-08-20T07:46:54.058Z,51.70
2018-08-20T07:49:21.621Z,51.60
2018-08-20T07:51:50.454Z,51.60
2018-08-20T07:54:18.125Z,51.50
2018-08-20T07:56:46.557Z,51.50
2018-08-20T07:59:14.559Z,51.40
2018-08-20T08:01:42.086Z,51.40
2018-08-20T08:04:09.650Z,51.40
2018-08-20T08:06:37.228Z,51.30
2018-08-20T08:09:05.932Z,51.40
2018-08-20T08:11:33.562Z,51.30
2018-08-20T08:14:01.161Z,51.30
2018-08-20T08:16:28.709Z,51.20
2018-08-20T08:18:56.583Z,51.30
2018-08-20T08:21:24.128Z,51.10
2018-08-20T08:23:51.961Z,51.00
2018-08-20T08:26:19.515Z,50.90
2018-08-20T08:28:47.066Z,50.90
2018-08-20T08:31:14.633Z,50.90
2018-08-20T08:33:42.212Z,50.80
2018-08-20T08:36:09.877Z,50.70
2018-08-20T08:38:37.480Z,50.60
2018-08-20T08:41:05.323Z,50.60
2018-08-20T08:43:32.977Z,50.40
2018-08-20T08:46:00.548Z,50.40
2018-08-20T08:48:28.094Z,50.40
2018-08-20T08:50:55.656Z,50.30
2018-08-20T08:53:23.523Z,50.20
2018-08-20T08:55:51.068Z,50.10
2018-08-20T08:58:18.613Z,50.10
2018-08-20T09:00:46.311Z,50.10
2018-08-20T09:03:13.765Z,50.10
2018-08-20T09:05:41.364Z,50.10
2018-08-20T09:08:08.903Z,50.10
2018-08-20T09:10:36.527Z,50.10
2018-08-20T09:13:04.169Z,50.00
2018-08-20T09:15:31.756Z,50.00
2018-08-20T09:17:59.549Z,49.90
2018-08-20T09:20:27.189Z,49.90
2018-08-20T09:22:54.719Z,49.60
2018-08-20T09:25:22.276Z,49.60
2018-08-20T09:27:49.836Z,49.60
2018-08-20T09:30:21.319Z,49.50
2018-08-20T09:32:48.895Z,49.40
2018-08-20T09:35:16.461Z,49.50
2018-08-20T09:37:44.017Z,49.30
2018-08-20T09:40:11.773Z,49.30
2018-08-20T09:42:40.153Z,49.10
2018-08-20T09:45:07.834Z,49.10
2018-08-20T09:47:36.311Z,48.90
2018-08-20T09:50:04.507Z,49.50
2018-08-20T09:52:32.411Z,48.90
2018-08-20T09:54:59.990Z,48.80
2018-08-20T09:57:27.561Z,48.70
2018-08-20T09:59:55.129Z,48.70
2018-08-20T10:02:22.719Z,48.40
2018-08-20T10:04:50.303Z,48.40
2018-08-20T10:07:18.049Z,48.20
2018-08-20T10:09:45.697Z,48.20
2018-08-20T10:12:13.208Z,48.00
2018-08-20T10:14:40.839Z,48.00
2018-08-20T10:17:08.501Z,47.90
2018-08-20T10:19:36.066Z,47.80
2018-08-20T10:22:03.703Z,47.80
2018-08-20T10:24:31.282Z,47.70
2018-08-20T10:26:58.846Z,47.70
2018-08-20T10:29:26.398Z,47.90
2018-08-20T10:31:53.968Z,47.90
2018-08-20T10:34:21.503Z,47.90
2018-08-20T10:36:49.155Z,48.00
2018-08-20T10:39:16.744Z,47.90
2018-08-20T10:41:44.306Z,47.80
2018-08-20T10:44:11.889Z,48.00
2018-08-20T10:46:39.464Z,47.90
2018-08-20T10:49:07.100Z,47.80
2018-08-20T10:51:34.708Z,48.20
2018-08-20T10:54:02.371Z,47.80
2018-08-20T10:56:29.946Z,47.80
2018-08-20T10:58:57.511Z,47.80
2018-08-20T11:01:25.069Z,47.70
2018-08-20T11:03:55.697Z,47.70
2018-08-20T11:06:23.440Z,47.60
2018-08-20T11:08:51.072Z,47.60
2018-08-20T11:11:18.642Z,47.50
2018-08-20T11:13:46.809Z,47.40
2018-08-20T11:16:14.404Z,47.50
2018-08-20T11:18:42.010Z,47.70
2018-08-20T11:21:09.573Z,47.80
2018-08-20T11:23:37.201Z,47.80
2018-08-20T11:26:04.812Z,48.00
2018-08-20T11:28:32.413Z,48.00
2018-08-20T11:30:59.967Z,47.50
2018-08-20T11:33:27.555Z,48.00
2018-08-20T11:35:55.150Z,48.10
2018-08-20T11:38:22.777Z,47.90
2018-08-20T11:40:50.350Z,47.80
2018-08-20T11:43:18.034Z,47.90
2018-08-20T11:45:45.573Z,48.00
2018-08-20T11:48:13.149Z,48.00
2018-08-20T11:50:40.747Z,48.10
2018-08-20T11:53:08.332Z,48.20
2018-08-20T11:55:35.994Z,48.30
2018-08-20T11:58:03.585Z,48.30
2018-08-20T12:00:31.466Z,48.20
2018-08-20T12:02:59.024Z,48.10
2018-08-20T12:05:26.573Z,48.20
2018-08-20T12:07:54.296Z,48.10
2018-08-20T12:10:21.904Z,47.90
2018-08-20T12:12:49.502Z,47.90
2018-08-20T12:15:17.105Z,47.90
2018-08-20T12:17:44.663Z,48.00
2018-08-20T12:20:12.220Z,48.00
2018-08-20T12:22:40.473Z,48.00
2018-08-20T12:25:09.222Z,48.00
2018-08-20T12:27:36.816Z,48.00
2018-08-20T12:30:04.851Z,48.00
2018-08-20T12:32:32.512Z,47.90
2018-08-20T12:35:00.130Z,47.90
2018-08-20T12:37:27.688Z,48.00
2018-08-20T12:39:55.345Z,48.00
2018-08-20T12:42:22.897Z,48.00
2018-08-20T12:44:50.518Z,48.30
2018-08-20T12:47:18.067Z,49.10
2018-08-20T12:49:45.779Z,48.40
2018-08-20T12:52:13.359Z,48.40
2018-08-20T12:54:40.936Z,48.40
2018-08-20T12:57:08.524Z,48.20
2018-08-20T12:59:36.089Z,48.10
2018-08-20T13:02:03.708Z,48.00
2018-08-20T13:04:31.302Z,47.90
2018-08-20T13:06:58.899Z,47.90
2018-08-20T13:09:26.530Z,47.70
2018-08-20T13:11:54.126Z,47.70
2018-08-20T13:14:21.724Z,47.70
2018-08-20T13:16:49.275Z,47.90
2018-08-20T13:19:16.872Z,47.90
2018-08-20T13:21:44.475Z,48.00
2018-08-20T13:24:12.048Z,48.20
2018-08-20T13:26:39.639Z,48.20
2018-08-20T13:29:07.463Z,48.10
2018-08-20T13:31:35.063Z,47.90
2018-08-20T13:34:02.688Z,47.90
2018-08-20T13:36:30.292Z,47.90
2018-08-20T13:38:57.856Z,48.00
2018-08-20T13:41:25.416Z,48.10
2018-08-20T13:43:53.088Z,48.10
2018-08-20T13:46:20.606Z,48.00
2018-08-20T13:48:48.173Z,48.00
2018-08-20T13:51:15.761Z,48.00
2018-08-20T13:53:43.324Z,48.40
2018-08-20T13:56:10.952Z,47.80
2018-08-20T13:58:38.717Z,47.70
2018-08-20T14:01:06.325Z,47.70
2018-08-20T14:03:33.961Z,47.60
2018-08-20T14:06:01.753Z,47.70
2018-08-20T14:08:29.316Z,47.70
2018-08-20T14:10:56.901Z,47.70
2018-08-20T14:13:24.476Z,47.90
2018-08-20T14:15:52.094Z,48.00
2018-08-20T14:18:19.643Z,48.10
2018-08-20T14:20:52.739Z,48.00
2018-08-20T14:23:20.370Z,47.90
2018-08-20T14:25:47.980Z,47.90
2018-08-20T14:28:15.595Z,47.90
2018-08-20T14:30:43.168Z,47.90
2018-08-20T14:33:10.749Z,47.90
2018-08-20T14:35:38.375Z,47.80
2018-08-20T14:38:05.976Z,47.70
2018-08-20T14:40:33.567Z,47.70
2018-08-20T14:43:01.153Z,47.70
2018-08-20T14:45:33.028Z,47.80
2018-08-20T14:48:00.635Z,47.90
2018-08-20T14:50:28.224Z,48.30
2018-08-20T14:52:55.782Z,48.10
2018-08-20T14:55:23.360Z,48.10
2018-08-20T14:57:50.908Z,48.10
2018-08-20T15:00:18.500Z,48.10
2018-08-20T15:02:46.105Z,48.00
2018-08-20T15:05:13.746Z,48.00
2018-08-20T15:07:41.264Z,47.90
2018-08-20T15:10:09.433Z,47.80
2018-08-20T15:12:37.031Z,47.80
2018-08-20T15:15:05.292Z,47.70
2018-08-20T15:17:32.839Z,47.70
2018-08-20T15:20:00.526Z,47.60
2018-08-20T15:22:28.120Z,47.60
2018-08-20T15:25:01.249Z,47.60
2018-08-20T15:27:28.836Z,47.60
2018-08-20T15:29:56.463Z,47.50
2018-08-20T15:32:24.112Z,47.60
2018-08-20T15:34:51.653Z,47.60
2018-08-20T15:37:19.259Z,47.60
2018-08-20T15:39:46.849Z,47.50
2018-08-20T15:42:14.462Z,47.40
2018-08-20T15:44:42.020Z,47.40
2018-08-20T15:47:09.633Z,47.50
2018-08-20T15:49:37.236Z,47.50
2018-08-20T15:52:04.908Z,47.60
2018-08-20T15:54:32.491Z,47.60
2018-08-20T15:57:00.103Z,47.70
2018-08-20T15:59:27.657Z,47.50
2018-08-20T16:01:55.288Z,47.50
2018-08-20T16:04:22.892Z,47.40
2018-08-20T16:06:50.490Z,47.30
2018-08-20T16:09:18.097Z,47.20
2018-08-20T16:11:45.739Z,47.30
2018-08-20T16:14:13.315Z,47.30
2018-08-20T16:16:40.909Z,47.10
2018-08-20T16:19:08.519Z,47.20
2018-08-20T16:21:36.127Z,47.10
2018-08-20T16:24:03.922Z,47.80
2018-08-20T16:26:31.732Z,47.20
2018-08-20T16:28:59.349Z,47.30
2018-08-20T16:31:26.899Z,47.30
2018-08-20T16:33:54.457Z,47.20
2018-08-20T16:36:22.031Z,47.00
2018-08-20T16:38:49.583Z,47.00
2018-08-20T16:41:17.156Z,47.10
2018-08-20T16:43:44.726Z,47.10
2018-08-20T16:46:12.406Z,47.00
2018-08-20T16:48:40.108Z,47.10
2018-08-20T16:51:07.703Z,47.10
2018-08-20T16:53:35.272Z,48.30
2018-08-20T16:56:02.958Z,49.40
2018-08-20T16:58:30.633Z,50.20
2018-08-20T17:00:58.249Z,50.40
2018-08-20T17:03:25.821Z,50.60
2018-08-20T17:05:54.853Z,50.70
2018-08-20T17:08:31.526Z,50.50
2018-08-20T17:10:59.203Z,50.30
2018-08-20T17:13:26.888Z,50.20
2018-08-20T17:15:54.467Z,49.90
2018-08-20T17:18:22.078Z,49.70
2018-08-20T17:20:49.649Z,49.60
2018-08-20T17:23:19.161Z,49.60
2018-08-20T17:25:46.820Z,49.50
2018-08-20T17:28:18.608Z,49.50
2018-08-20T17:30:46.184Z,49.60
2018-08-20T17:33:18.622Z,49.70
2018-08-20T17:35:46.519Z,49.60
2018-08-20T17:38:14.089Z,49.60
2018-08-20T17:40:41.716Z,49.60
2018-08-20T17:43:09.672Z,49.50
2018-08-20T17:45:37.220Z,49.50
2018-08-20T17:48:05.083Z,49.50
2018-08-20T17:50:35.135Z,49.40
2018-08-20T17:53:02.920Z,49.50
2018-08-20T17:55:30.509Z,49.40
2018-08-20T17:57:58.525Z,49.40
2018-08-20T18:00:27.033Z,49.30
2018-08-20T18:02:54.641Z,49.40
2018-08-20T18:05:23.735Z,49.30
2018-08-20T18:07:51.562Z,49.40
2018-08-20T18:10:19.237Z,49.40
2018-08-20T18:12:46.839Z,50.10
2018-08-20T18:15:15.054Z,49.60
2018-08-20T18:17:42.977Z,49.50
2018-08-20T18:20:10.645Z,49.60
2018-08-20T18:22:38.284Z,49.60
2018-08-20T18:25:05.884Z,49.70
2018-08-20T18:27:37.856Z,49.70
2018-08-20T18:30:05.743Z,49.70
2018-08-20T18:32:33.388Z,49.70
2018-08-20T18:35:00.980Z,49.80
2018-08-20T18:37:28.696Z,49.80
2018-08-20T18:39:59.835Z,49.90
2018-08-20T18:42:31.784Z,49.90
2018-08-20T18:44:59.502Z,49.90
2018-08-20T18:47:27.158Z,49.90
2018-08-20T18:49:58.816Z,49.90
2018-08-20T18:52:27.956Z,50.60
2018-08-20T18:54:56.694Z,50.00
2018-08-20T18:57:29.204Z,50.00
2018-08-20T18:59:57.369Z,50.00
2018-08-20T19:02:36.270Z,50.10
2018-08-20T19:05:04.753Z,50.10
2018-08-20T19:07:32.467Z,50.70
2018-08-20T19:10:00.020Z,50.20
2018-08-20T19:12:27.568Z,50.20
2018-08-20T19:14:55.156Z,50.30
2018-08-20T19:17:28.537Z,50.20
2018-08-20T19:20:03.024Z,50.20
2018-08-20T19:22:30.805Z,50.30
2018-08-20T19:24:58.565Z,50.30
2018-08-20T19:27:26.515Z,50.70
2018-08-20T19:29:54.175Z,50.30
2018-08-20T19:32:21.814Z,50.30
2018-08-20T19:34:50.456Z,50.30
2018-08-20T19:37:18.053Z,50.30
2018-08-20T19:39:45.660Z,50.30
2018-08-20T19:42:14.076Z,50.40
2018-08-20T19:44:42.767Z,50.50
2018-08-20T19:47:11.882Z,50.50
2018-08-20T19:49:39.628Z,50.40
2018-08-20T19:52:07.234Z,50.50
2018-08-20T19:54:34.903Z,50.50
2018-08-20T19:57:02.576Z,50.60
2018-08-20T19:59:35.667Z,50.70
2018-08-20T20:02:03.301Z,50.80
2018-08-20T20:04:30.925Z,50.60
2018-08-20T20:06:58.477Z,50.20
2018-08-20T20:09:26.127Z,50.10
